Terminal Aerodrome Forecast
Issued by NWS Grand Forks, ND

Home | Current Version | Previous Version | Text Only | Print | Product List | Glossary Off
Versions: 1 2 3 4 5 6 7 8 9 10 11 12 13 14 15 16 17 18 19 20 21 22 23 24

802
FTUS43 KFGF 261610 AAC
TAFGFK
TAF AMD
KGFK 261610Z 2616/2712 27014KT P6SM SCT050
     FM261700 27014G22KT P6SM SCT050
     FM270200 25008KT P6SM SCT050
     FM271000 22006KT P6SM SCT250=

USA.gov is the U.S. government's official web portal to all federal, state and local government web resources and services.